Uberlandia, Brazil

9:25 PM BRT on September 02, 2014 (GMT -0300)
Uberlandia | Change Station
CLOSE
Current Station
Airport
Location: Uberlandia,
Elevation: 3094 ft
Nearby Weather Stations

Elev 3094 ft 18.88 °S, 48.23 °W | Updated 25 minutes ago

Clear
Clear
79 °F
Feels Like 79 °F
N
2
Wind Variable Wind from NNW

Today
High -- | Low -- °F
--% Chance of Precip.
Yesterday
High -- | Low -- °F
Precip. -- in
6:19 AM 6:05 PM
First Quarter, 56% visible
Pressure 30.01 in
Visibility -9999.0 miles
Clouds
Dew Point 54 °F
Humidity 42%
Rainfall 0.00 in
Snow Depth Not available.
UV Not available.
Pollen Not available.
Air Quality Not available.
Flu Activity Not available.
METAR SBUL 030000Z 34002KT CAVOK 26/12 Q1016

More Conditions Fewer Conditions

Pressure 30.01 in
Visibility -9999.0 miles
Clouds
Dew Point 54 °F
Humidity 42%
Rainfall 0.00 in
Snow Depth Not available.
UV Not available.
Pollen Not available.
Air Quality Not available.
Flu Activity Not available.
METAR SBUL 030000Z 34002KT CAVOK 26/12 Q1016

More Conditions Fewer Conditions

10-Day Weather Forecast

Almanac

Astronomy

Sep. 02, 2014 Rise Set
Actual Time 6:19 AM BRT 6:05 PM BRT
Civil Twilight 5:57 AM BRT 6:27 PM BRT
Nautical Twilight 5:32 AM BRT 6:52 PM BRT
Astronomical Twilight 5:07 AM BRT 7:18 PM BRT
Moon 11:45 AM BRT (9/2) 12:09 AM BRT (9/2)
Length of Visible Light 12h 29m
Length of Day
11h 45m
Tomorrow will be 1m 1s longer.
First Quarter, 56% of the Moon is Illuminated
Today
First Quarter
Sep 8
Full
Sep 15
Last Quarter
Sep 24
New
Oct 1
First Quarter

Today's Extremes

Country Highs Country Lows

Community

WunderPhotos

Upload Photos

1,749,816 photos uploaded!

Nearby

Snow Depth

Not available.

Earthquake Activity

City Distance Mag. Time & Date
No recent earthquake activity has been reported nearby.
Minimum magnitude displayed is 2.5.

Coastal Water Temperatures

Place Temperature
No Stations Reporting

Nearby Weather Stations